sensor_id;sensor_type;location;lat;lon;timestamp;pressure;altitude;pressure_sealevel;temperature;humidity
14882;BME280;7533;51.278;12.588;2023-11-19T00:00:01;99954.09;;;26.24;52.67
14882;BME280;7533;51.278;12.588;2023-11-19T00:05:10;99958.69;;;26.24;52.52
14882;BME280;7533;51.278;12.588;2023-11-19T00:10:15;99949.69;;;26.23;52.48
14882;BME280;7533;51.278;12.588;2023-11-19T00:15:20;99947.97;;;26.22;52.60
14882;BME280;7533;51.278;12.588;2023-11-19T00:20:27;99950.69;;;26.22;52.66
14882;BME280;7533;51.278;12.588;2023-11-19T00:25:30;99937.13;;;26.22;52.66
14882;BME280;7533;51.278;12.588;2023-11-19T00:30:33;99917.13;;;26.23;52.52
14882;BME280;7533;51.278;12.588;2023-11-19T00:35:37;99917.41;;;26.20;52.75
14882;BME280;7533;51.278;12.588;2023-11-19T00:40:40;99902.44;;;26.16;52.67
14882;BME280;7533;51.278;12.588;2023-11-19T00:45:43;99880.56;;;26.27;52.71
14882;BME280;7533;51.278;12.588;2023-11-19T00:50:47;99868.72;;;26.28;52.93
14882;BME280;7533;51.278;12.588;2023-11-19T00:55:50;99851.16;;;26.32;52.67
14882;BME280;7533;51.278;12.588;2023-11-19T01:00:53;99833.53;;;26.36;52.72
14882;BME280;7533;51.278;12.588;2023-11-19T01:05:58;99823.13;;;26.42;52.68
14882;BME280;7533;51.278;12.588;2023-11-19T01:11:01;99800.56;;;26.41;52.86
14882;BME280;7533;51.278;12.588;2023-11-19T01:16:05;99793.56;;;26.38;52.81
14882;BME280;7533;51.278;12.588;2023-11-19T01:21:10;99782.84;;;26.37;52.68
14882;BME280;7533;51.278;12.588;2023-11-19T01:26:13;99786.56;;;26.36;52.89
14882;BME280;7533;51.278;12.588;2023-11-19T01:31:15;99764.31;;;26.32;53.03
14882;BME280;7533;51.278;12.588;2023-11-19T01:36:20;99729.19;;;26.31;53.00
14882;BME280;7533;51.278;12.588;2023-11-19T01:41:23;99726.06;;;26.26;52.90
14882;BME280;7533;51.278;12.588;2023-11-19T01:46:26;99711.25;;;26.20;52.99
14882;BME280;7533;51.278;12.588;2023-11-19T01:51:31;99689.31;;;26.14;53.39
14882;BME280;7533;51.278;12.588;2023-11-19T01:56:35;99692.78;;;26.06;53.30
14882;BME280;7533;51.278;12.588;2023-11-19T02:01:38;99693.53;;;25.98;53.46
14882;BME280;7533;51.278;12.588;2023-11-19T02:06:45;99688.16;;;25.89;53.72
14882;BME280;7533;51.278;12.588;2023-11-19T02:11:48;99685.19;;;25.82;53.95
14882;BME280;7533;51.278;12.588;2023-11-19T02:16:52;99656.94;;;25.75;53.99
14882;BME280;7533;51.278;12.588;2023-11-19T02:21:57;99646.69;;;25.69;54.30
14882;BME280;7533;51.278;12.588;2023-11-19T02:27:03;99645.41;;;25.63;54.20
14882;BME280;7533;51.278;12.588;2023-11-19T02:32:15;99632.78;;;25.54;54.52
14882;BME280;7533;51.278;12.588;2023-11-19T02:37:18;99605.13;;;25.50;54.54
14882;BME280;7533;51.278;12.588;2023-11-19T02:42:21;99595.03;;;25.43;55.03
14882;BME280;7533;51.278;12.588;2023-11-19T02:47:26;99603.75;;;25.37;54.85
14882;BME280;7533;51.278;12.588;2023-11-19T02:52:31;99563.69;;;25.30;55.29
14882;BME280;7533;51.278;12.588;2023-11-19T02:57:39;99561.47;;;25.26;55.31
14882;BME280;7533;51.278;12.588;2023-11-19T03:02:49;99538.53;;;25.20;55.48
14882;BME280;7533;51.278;12.588;2023-11-19T03:08:00;99531.84;;;25.15;55.58
14882;BME280;7533;51.278;12.588;2023-11-19T03:13:04;99507.91;;;25.10;55.65
14882;BME280;7533;51.278;12.588;2023-11-19T03:18:08;99499.50;;;25.03;55.85
14882;BME280;7533;51.278;12.588;2023-11-19T03:23:11;99484.72;;;24.98;56.17
14882;BME280;7533;51.278;12.588;2023-11-19T03:28:14;99508.78;;;24.91;56.15
14882;BME280;7533;51.278;12.588;2023-11-19T03:33:18;99488.56;;;24.86;56.50
14882;BME280;7533;51.278;12.588;2023-11-19T03:38:22;99487.19;;;24.82;56.38
14882;BME280;7533;51.278;12.588;2023-11-19T03:43:25;99481.38;;;24.76;56.81
14882;BME280;7533;51.278;12.588;2023-11-19T03:48:30;99475.38;;;24.73;56.81
14882;BME280;7533;51.278;12.588;2023-11-19T03:53:32;99476.81;;;24.67;57.29
14882;BME280;7533;51.278;12.588;2023-11-19T03:58:35;99468.28;;;24.62;57.40
14882;BME280;7533;51.278;12.588;2023-11-19T04:03:41;99458.91;;;24.57;57.31
14882;BME280;7533;51.278;12.588;2023-11-19T04:08:47;99444.84;;;24.53;57.55
14882;BME280;7533;51.278;12.588;2023-11-19T04:13:50;99439.69;;;24.50;57.38
14882;BME280;7533;51.278;12.588;2023-11-19T04:18:54;99432.03;;;24.45;57.78
14882;BME280;7533;51.278;12.588;2023-11-19T04:23:58;99421.63;;;24.41;57.66
14882;BME280;7533;51.278;12.588;2023-11-19T04:29:02;99427.34;;;24.38;57.73
14882;BME280;7533;51.278;12.588;2023-11-19T04:34:06;99416.81;;;24.35;57.97
14882;BME280;7533;51.278;12.588;2023-11-19T04:39:09;99413.66;;;24.29;57.92
14882;BME280;7533;51.278;12.588;2023-11-19T04:44:14;99410.41;;;24.26;58.13
14882;BME280;7533;51.278;12.588;2023-11-19T04:49:18;99397.16;;;24.23;58.34
14882;BME280;7533;51.278;12.588;2023-11-19T04:54:22;99401.19;;;24.19;58.56
14882;BME280;7533;51.278;12.588;2023-11-19T04:59:26;99382.53;;;24.16;58.39
14882;BME280;7533;51.278;12.588;2023-11-19T05:04:30;99404.44;;;24.13;58.83
14882;BME280;7533;51.278;12.588;2023-11-19T05:09:33;99364.19;;;24.10;58.88
14882;BME280;7533;51.278;12.588;2023-11-19T05:14:36;99354.66;;;24.06;59.05
14882;BME280;7533;51.278;12.588;2023-11-19T05:19:40;99343.16;;;24.04;59.14
14882;BME280;7533;51.278;12.588;2023-11-19T05:24:43;99362.25;;;24.02;59.35
14882;BME280;7533;51.278;12.588;2023-11-19T05:29:46;99338.03;;;24.00;59.52
14882;BME280;7533;51.278;12.588;2023-11-19T05:34:50;99323.97;;;23.97;59.54
14882;BME280;7533;51.278;12.588;2023-11-19T05:39:53;99330.34;;;23.96;59.80
14882;BME280;7533;51.278;12.588;2023-11-19T05:44:56;99326.97;;;23.94;59.79
14882;BME280;7533;51.278;12.588;2023-11-19T05:50:00;99333.63;;;23.90;59.84
14882;BME280;7533;51.278;12.588;2023-11-19T05:55:04;99340.91;;;23.89;59.93
14882;BME280;7533;51.278;12.588;2023-11-19T06:00:11;99326.69;;;23.87;59.91
14882;BME280;7533;51.278;12.588;2023-11-19T06:05:18;99309.78;;;23.85;60.03
14882;BME280;7533;51.278;12.588;2023-11-19T06:10:22;99292.84;;;23.83;60.08
14882;BME280;7533;51.278;12.588;2023-11-19T06:15:30;99306.50;;;23.82;60.12
14882;BME280;7533;51.278;12.588;2023-11-19T06:20:35;99311.22;;;23.80;60.28
14882;BME280;7533;51.278;12.588;2023-11-19T06:25:41;99315.91;;;23.78;60.21
14882;BME280;7533;51.278;12.588;2023-11-19T06:30:44;99321.59;;;23.74;60.24
14882;BME280;7533;51.278;12.588;2023-11-19T06:35:51;99323.56;;;23.72;60.38
14882;BME280;7533;51.278;12.588;2023-11-19T06:40:56;99311.06;;;23.71;60.32
14882;BME280;7533;51.278;12.588;2023-11-19T06:45:58;99321.03;;;23.71;60.51
14882;BME280;7533;51.278;12.588;2023-11-19T06:51:05;99327.59;;;23.68;60.39
14882;BME280;7533;51.278;12.588;2023-11-19T06:56:17;99316.06;;;23.66;60.49
14882;BME280;7533;51.278;12.588;2023-11-19T07:01:20;99290.03;;;23.65;60.71
14882;BME280;7533;51.278;12.588;2023-11-19T07:06:24;99289.34;;;23.63;60.74
14882;BME280;7533;51.278;12.588;2023-11-19T07:11:30;99295.59;;;23.64;60.71
14882;BME280;7533;51.278;12.588;2023-11-19T07:16:33;99305.63;;;23.62;60.74
14882;BME280;7533;51.278;12.588;2023-11-19T07:21:42;99306.78;;;23.59;60.90
14882;BME280;7533;51.278;12.588;2023-11-19T07:26:47;99312.34;;;23.58;60.88
14882;BME280;7533;51.278;12.588;2023-11-19T07:31:50;99307.06;;;23.56;60.79
14882;BME280;7533;51.278;12.588;2023-11-19T07:36:54;99325.84;;;23.58;60.78
14882;BME280;7533;51.278;12.588;2023-11-19T07:41:58;99325.13;;;23.56;60.68
14882;BME280;7533;51.278;12.588;2023-11-19T07:47:02;99328.81;;;23.55;60.63
14882;BME280;7533;51.278;12.588;2023-11-19T07:52:06;99342.63;;;23.52;60.83
14882;BME280;7533;51.278;12.588;2023-11-19T07:57:22;99353.44;;;23.52;60.88
14882;BME280;7533;51.278;12.588;2023-11-19T08:02:26;99364.34;;;23.50;60.91
14882;BME280;7533;51.278;12.588;2023-11-19T08:07:31;99364.84;;;22.25;53.08
14882;BME280;7533;51.278;12.588;2023-11-19T08:12:34;99381.28;;;20.82;54.23
14882;BME280;7533;51.278;12.588;2023-11-19T08:17:37;99389.75;;;21.32;58.15
14882;BME280;7533;51.278;12.588;2023-11-19T08:22:41;99382.97;;;22.02;56.91
14882;BME280;7533;51.278;12.588;2023-11-19T08:27:44;99391.84;;;22.34;56.31
14882;BME280;7533;51.278;12.588;2023-11-19T08:32:48;99376.59;;;22.54;56.28
14882;BME280;7533;51.278;12.588;2023-11-19T08:37:52;99377.94;;;22.69;56.25
14882;BME280;7533;51.278;12.588;2023-11-19T08:42:55;99382.25;;;22.82;56.18
14882;BME280;7533;51.278;12.588;2023-11-19T08:47:58;99379.78;;;22.90;56.06
14882;BME280;7533;51.278;12.588;2023-11-19T08:53:03;99380.19;;;22.95;55.77
14882;BME280;7533;51.278;12.588;2023-11-19T08:58:08;99382.47;;;23.00;55.66
14882;BME280;7533;51.278;12.588;2023-11-19T09:03:11;99386.47;;;23.05;55.41
14882;BME280;7533;51.278;12.588;2023-11-19T09:08:15;99395.84;;;23.11;55.29
14882;BME280;7533;51.278;12.588;2023-11-19T09:13:19;99405.25;;;23.16;55.10
14882;BME280;7533;51.278;12.588;2023-11-19T09:18:22;99402.97;;;23.21;55.01
14882;BME280;7533;51.278;12.588;2023-11-19T09:23:26;99404.28;;;23.27;55.03
14882;BME280;7533;51.278;12.588;2023-11-19T09:28:30;99394.75;;;23.33;55.07
14882;BME280;7533;51.278;12.588;2023-11-19T09:33:33;99388.25;;;23.35;55.23
14882;BME280;7533;51.278;12.588;2023-11-19T09:38:38;99402.88;;;23.42;55.65
14882;BME280;7533;51.278;12.588;2023-11-19T09:43:42;99397.34;;;23.44;55.97
14882;BME280;7533;51.278;12.588;2023-11-19T09:48:45;99398.63;;;23.49;56.08
14882;BME280;7533;51.278;12.588;2023-11-19T09:53:51;99401.06;;;23.53;56.33
14882;BME280;7533;51.278;12.588;2023-11-19T09:58:54;99396.34;;;23.55;56.38
14882;BME280;7533;51.278;12.588;2023-11-19T10:03:57;99391.53;;;23.58;56.43
14882;BME280;7533;51.278;12.588;2023-11-19T10:09:02;99380.72;;;23.58;56.60
14882;BME280;7533;51.278;12.588;2023-11-19T10:14:06;99386.97;;;23.59;56.78
14882;BME280;7533;51.278;12.588;2023-11-19T10:19:12;99382.16;;;23.62;56.82
14882;BME280;7533;51.278;12.588;2023-11-19T10:24:32;99371.22;;;23.64;56.89
14882;BME280;7533;51.278;12.588;2023-11-19T10:29:40;99379.03;;;23.67;56.81
14882;BME280;7533;51.278;12.588;2023-11-19T10:34:43;99365.41;;;23.68;56.91
14882;BME280;7533;51.278;12.588;2023-11-19T10:39:54;99349.03;;;23.70;56.96
14882;BME280;7533;51.278;12.588;2023-11-19T10:44:57;99337.81;;;23.74;56.76
14882;BME280;7533;51.278;12.588;2023-11-19T10:50:00;99332.09;;;23.78;57.16
14882;BME280;7533;51.278;12.588;2023-11-19T10:55:07;99321.16;;;23.79;57.11
14882;BME280;7533;51.278;12.588;2023-11-19T11:00:16;99311.75;;;23.83;56.94
14882;BME280;7533;51.278;12.588;2023-11-19T11:05:22;99322.13;;;23.88;56.76
14882;BME280;7533;51.278;12.588;2023-11-19T11:10:32;99315.72;;;23.98;56.90
14882;BME280;7533;51.278;12.588;2023-11-19T11:15:38;99307.59;;;24.08;56.63
14882;BME280;7533;51.278;12.588;2023-11-19T11:20:44;99310.25;;;24.18;56.64
14882;BME280;7533;51.278;12.588;2023-11-19T11:26:00;99319.00;;;24.29;56.59
14882;BME280;7533;51.278;12.588;2023-11-19T11:31:15;99323.72;;;24.37;56.58
14882;BME280;7533;51.278;12.588;2023-11-19T11:36:25;99314.59;;;24.48;56.56
14882;BME280;7533;51.278;12.588;2023-11-19T11:41:30;99315.00;;;24.53;56.34
14882;BME280;7533;51.278;12.588;2023-11-19T11:46:55;99315.63;;;24.65;56.31
14882;BME280;7533;51.278;12.588;2023-11-19T11:51:59;99308.44;;;24.73;56.17
14882;BME280;7533;51.278;12.588;2023-11-19T11:57:07;99307.56;;;24.83;56.53
14882;BME280;7533;51.278;12.588;2023-11-19T12:02:16;99311.34;;;24.90;56.41
14882;BME280;7533;51.278;12.588;2023-11-19T12:07:20;99306.34;;;24.95;55.65
14882;BME280;7533;51.278;12.588;2023-11-19T12:12:27;99303.72;;;25.03;55.96
14882;BME280;7533;51.278;12.588;2023-11-19T12:17:52;99293.00;;;25.11;55.38
14882;BME280;7533;51.278;12.588;2023-11-19T12:22:55;99292.53;;;25.16;55.31
14882;BME280;7533;51.278;12.588;2023-11-19T12:28:00;99295.66;;;25.21;54.76
14882;BME280;7533;51.278;12.588;2023-11-19T12:33:08;99298.19;;;25.22;54.53
14882;BME280;7533;51.278;12.588;2023-11-19T12:38:18;99288.53;;;25.20;54.30
14882;BME280;7533;51.278;12.588;2023-11-19T12:43:22;99289.66;;;25.17;53.88
14882;BME280;7533;51.278;12.588;2023-11-19T12:48:25;99296.50;;;25.21;53.93
14882;BME280;7533;51.278;12.588;2023-11-19T12:53:29;99295.94;;;25.18;53.56
14882;BME280;7533;51.278;12.588;2023-11-19T12:58:34;99296.50;;;25.21;54.00
14882;BME280;7533;51.278;12.588;2023-11-19T13:03:38;99292.78;;;25.22;53.58
14882;BME280;7533;51.278;12.588;2023-11-19T13:08:43;99287.66;;;25.19;53.44
14882;BME280;7533;51.278;12.588;2023-11-19T13:13:57;99290.00;;;25.14;52.91
14882;BME280;7533;51.278;12.588;2023-11-19T13:19:00;99289.44;;;25.11;52.93
14882;BME280;7533;51.278;12.588;2023-11-19T13:24:05;99298.41;;;25.11;52.85
14882;BME280;7533;51.278;12.588;2023-11-19T13:29:09;99294.88;;;25.11;52.92
14882;BME280;7533;51.278;12.588;2023-11-19T13:34:12;99300.84;;;25.14;53.13
14882;BME280;7533;51.278;12.588;2023-11-19T13:39:16;99293.41;;;25.16;53.07
14882;BME280;7533;51.278;12.588;2023-11-19T13:44:25;99296.41;;;25.13;52.81
14882;BME280;7533;51.278;12.588;2023-11-19T13:49:28;99294.41;;;25.15;52.99
14882;BME280;7533;51.278;12.588;2023-11-19T13:54:31;99293.56;;;25.15;53.38
14882;BME280;7533;51.278;12.588;2023-11-19T13:59:39;99290.13;;;25.13;53.38
14882;BME280;7533;51.278;12.588;2023-11-19T14:04:42;99294.00;;;25.10;53.31
14882;BME280;7533;51.278;12.588;2023-11-19T14:09:46;99296.72;;;25.10;53.46
14882;BME280;7533;51.278;12.588;2023-11-19T14:14:50;99294.00;;;25.10;53.69
14882;BME280;7533;51.278;12.588;2023-11-19T14:19:53;99292.31;;;25.27;53.76
14882;BME280;7533;51.278;12.588;2023-11-19T14:24:56;99290.81;;;25.50;53.26
14882;BME280;7533;51.278;12.588;2023-11-19T14:30:00;99291.41;;;25.62;53.17
14882;BME280;7533;51.278;12.588;2023-11-19T14:35:04;99293.69;;;25.49;53.12
14882;BME280;7533;51.278;12.588;2023-11-19T14:40:07;99297.72;;;25.27;54.08
14882;BME280;7533;51.278;12.588;2023-11-19T14:45:14;99302.66;;;25.14;54.39
14882;BME280;7533;51.278;12.588;2023-11-19T14:50:17;99300.00;;;25.04;54.67
14882;BME280;7533;51.278;12.588;2023-11-19T14:55:21;99298.78;;;24.98;54.84
14882;BME280;7533;51.278;12.588;2023-11-19T15:00:25;99301.94;;;24.94;54.97
14882;BME280;7533;51.278;12.588;2023-11-19T15:05:28;99306.66;;;24.92;55.00
14882;BME280;7533;51.278;12.588;2023-11-19T15:10:31;99305.78;;;24.91;54.78
14882;BME280;7533;51.278;12.588;2023-11-19T15:15:35;99307.78;;;24.89;54.93
14882;BME280;7533;51.278;12.588;2023-11-19T15:20:40;99305.41;;;24.86;55.10
14882;BME280;7533;51.278;12.588;2023-11-19T15:25:43;99310.09;;;24.84;55.57
14882;BME280;7533;51.278;12.588;2023-11-19T15:30:47;99319.06;;;24.85;55.35
14882;BME280;7533;51.278;12.588;2023-11-19T15:35:50;99320.06;;;24.84;55.59
14882;BME280;7533;51.278;12.588;2023-11-19T15:40:53;99314.81;;;24.82;55.65
14882;BME280;7533;51.278;12.588;2023-11-19T15:45:57;99315.84;;;24.81;56.30
14882;BME280;7533;51.278;12.588;2023-11-19T15:51:00;99323.09;;;24.80;56.11
14882;BME280;7533;51.278;12.588;2023-11-19T15:56:04;99330.34;;;24.80;56.19
14882;BME280;7533;51.278;12.588;2023-11-19T16:01:09;99336.75;;;24.79;56.20
14882;BME280;7533;51.278;12.588;2023-11-19T16:06:13;99339.34;;;24.80;56.16
14882;BME280;7533;51.278;12.588;2023-11-19T16:11:16;99339.34;;;24.80;56.31
14882;BME280;7533;51.278;12.588;2023-11-19T16:16:21;99336.63;;;24.80;56.61
14882;BME280;7533;51.278;12.588;2023-11-19T16:21:24;99339.19;;;24.82;56.33
14882;BME280;7533;51.278;12.588;2023-11-19T16:26:27;99337.50;;;24.81;56.43
14882;BME280;7533;51.278;12.588;2023-11-19T16:31:32;99334.22;;;24.77;56.44
14882;BME280;7533;51.278;12.588;2023-11-19T16:36:35;99339.78;;;24.76;56.51
14882;BME280;7533;51.278;12.588;2023-11-19T16:41:38;99346.06;;;24.76;56.43
14882;BME280;7533;51.278;12.588;2023-11-19T16:46:45;99350.28;;;24.79;56.70
14882;BME280;7533;51.278;12.588;2023-11-19T16:51:48;99343.34;;;24.76;56.90
14882;BME280;7533;51.278;12.588;2023-11-19T16:56:51;99348.34;;;24.99;56.68
14882;BME280;7533;51.278;12.588;2023-11-19T17:01:56;99346.94;;;25.22;55.90
14882;BME280;7533;51.278;12.588;2023-11-19T17:06:59;99348.56;;;25.33;55.57
14882;BME280;7533;51.278;12.588;2023-11-19T17:12:02;99362.19;;;25.41;55.71
14882;BME280;7533;51.278;12.588;2023-11-19T17:17:06;99349.47;;;25.42;55.38
14882;BME280;7533;51.278;12.588;2023-11-19T17:22:09;99352.19;;;25.42;55.26
14882;BME280;7533;51.278;12.588;2023-11-19T17:27:12;99353.06;;;25.42;55.47
14882;BME280;7533;51.278;12.588;2023-11-19T17:32:16;99360.31;;;25.42;55.01
14882;BME280;7533;51.278;12.588;2023-11-19T17:37:20;99360.47;;;25.40;55.28
14882;BME280;7533;51.278;12.588;2023-11-19T17:42:23;99357.94;;;25.39;54.95
14882;BME280;7533;51.278;12.588;2023-11-19T17:47:27;99361.66;;;25.38;55.01
14882;BME280;7533;51.278;12.588;2023-11-19T17:52:30;99360.09;;;25.35;55.02
14882;BME280;7533;51.278;12.588;2023-11-19T17:57:33;99350.25;;;25.34;55.01
14882;BME280;7533;51.278;12.588;2023-11-19T18:02:38;99354.84;;;25.33;55.21
14882;BME280;7533;51.278;12.588;2023-11-19T18:07:44;99349.41;;;25.33;55.04
14882;BME280;7533;51.278;12.588;2023-11-19T18:12:47;99354.00;;;25.33;54.80
14882;BME280;7533;51.278;12.588;2023-11-19T18:17:51;99342.31;;;25.32;55.11
14882;BME280;7533;51.278;12.588;2023-11-19T18:22:54;99352.41;;;25.30;54.96
14882;BME280;7533;51.278;12.588;2023-11-19T18:27:57;99354.28;;;25.30;55.02
14882;BME280;7533;51.278;12.588;2023-11-19T18:33:02;99353.59;;;25.28;55.31
14882;BME280;7533;51.278;12.588;2023-11-19T18:38:05;99367.97;;;25.28;55.43
14882;BME280;7533;51.278;12.588;2023-11-19T18:43:08;99365.44;;;25.27;55.35
14882;BME280;7533;51.278;12.588;2023-11-19T18:48:12;99360.19;;;25.25;55.08
14882;BME280;7533;51.278;12.588;2023-11-19T18:53:15;99363.88;;;25.24;55.56
14882;BME280;7533;51.278;12.588;2023-11-19T18:58:18;99364.03;;;25.23;55.17
14882;BME280;7533;51.278;12.588;2023-11-19T19:03:23;99354.38;;;25.20;55.34
14882;BME280;7533;51.278;12.588;2023-11-19T19:08:26;99361.50;;;25.21;55.45
14882;BME280;7533;51.278;12.588;2023-11-19T19:13:29;99351.78;;;25.19;55.58
14882;BME280;7533;51.278;12.588;2023-11-19T19:18:34;99358.22;;;25.18;55.35
14882;BME280;7533;51.278;12.588;2023-11-19T19:23:37;99358.22;;;25.18;55.43
14882;BME280;7533;51.278;12.588;2023-11-19T19:28:40;99352.13;;;25.16;55.49
14882;BME280;7533;51.278;12.588;2023-11-19T19:33:44;99356.53;;;25.17;55.20
14882;BME280;7533;51.278;12.588;2023-11-19T19:38:53;99363.81;;;25.16;55.39
14882;BME280;7533;51.278;12.588;2023-11-19T19:43:57;99357.69;;;25.14;55.36
14882;BME280;7533;51.278;12.588;2023-11-19T19:49:01;99357.81;;;25.13;55.23
14882;BME280;7533;51.278;12.588;2023-11-19T19:54:04;99369.50;;;25.13;55.20
14882;BME280;7533;51.278;12.588;2023-11-19T19:59:07;99371.53;;;25.11;55.01
14882;BME280;7533;51.278;12.588;2023-11-19T20:04:12;99365.25;;;25.11;55.12
14882;BME280;7533;51.278;12.588;2023-11-19T20:09:15;99364.56;;;25.09;55.21
14882;BME280;7533;51.278;12.588;2023-11-19T20:14:18;99368.53;;;25.04;55.51
14882;BME280;7533;51.278;12.588;2023-11-19T20:19:26;99361.94;;;24.89;55.55
14882;BME280;7533;51.278;12.588;2023-11-19T20:24:28;99369.84;;;24.73;56.20
14882;BME280;7533;51.278;12.588;2023-11-19T20:29:31;99384.81;;;24.67;56.52
14882;BME280;7533;51.278;12.588;2023-11-19T20:34:36;99378.72;;;24.65;56.46
14882;BME280;7533;51.278;12.588;2023-11-19T20:39:39;99374.16;;;24.66;56.40
14882;BME280;7533;51.278;12.588;2023-11-19T20:44:42;99375.41;;;24.71;56.37
14882;BME280;7533;51.278;12.588;2023-11-19T20:49:46;99374.41;;;24.72;56.28
14882;BME280;7533;51.278;12.588;2023-11-19T20:54:49;99379.53;;;24.75;56.17
14882;BME280;7533;51.278;12.588;2023-11-19T20:59:52;99377.53;;;24.77;55.78
14882;BME280;7533;51.278;12.588;2023-11-19T21:04:56;99373.81;;;24.78;56.08
14882;BME280;7533;51.278;12.588;2023-11-19T21:09:59;99359.59;;;24.76;55.88
14882;BME280;7533;51.278;12.588;2023-11-19T21:15:02;99360.59;;;24.75;55.87
14882;BME280;7533;51.278;12.588;2023-11-19T21:20:08;99366.84;;;24.76;56.10
14882;BME280;7533;51.278;12.588;2023-11-19T21:25:12;99354.34;;;24.75;55.78
14882;BME280;7533;51.278;12.588;2023-11-19T21:30:15;99359.59;;;24.76;55.99
14882;BME280;7533;51.278;12.588;2023-11-19T21:35:20;99354.16;;;24.76;55.70
14882;BME280;7533;51.278;12.588;2023-11-19T21:40:25;99347.75;;;24.77;55.98
14882;BME280;7533;51.278;12.588;2023-11-19T21:45:28;99353.16;;;24.77;55.90
14882;BME280;7533;51.278;12.588;2023-11-19T21:50:32;99351.16;;;24.79;56.11
14882;BME280;7533;51.278;12.588;2023-11-19T21:55:35;99349.28;;;24.80;55.98
14882;BME280;7533;51.278;12.588;2023-11-19T22:00:38;99342.91;;;24.81;56.24
14882;BME280;7533;51.278;12.588;2023-11-19T22:05:43;99345.59;;;24.81;56.24
14882;BME280;7533;51.278;12.588;2023-11-19T22:10:46;99351.03;;;24.81;56.02
14882;BME280;7533;51.278;12.588;2023-11-19T22:15:48;99346.47;;;24.82;56.23
14882;BME280;7533;51.278;12.588;2023-11-19T22:20:53;99350.00;;;24.82;56.63
14882;BME280;7533;51.278;12.588;2023-11-19T22:25:56;99343.75;;;24.82;56.30
14882;BME280;7533;51.278;12.588;2023-11-19T22:30:58;99339.19;;;24.82;56.32
14882;BME280;7533;51.278;12.588;2023-11-19T22:36:04;99336.47;;;24.82;56.27
14882;BME280;7533;51.278;12.588;2023-11-19T22:41:07;99339.19;;;24.82;56.48
14882;BME280;7533;51.278;12.588;2023-11-19T22:46:12;99340.03;;;24.83;56.27
14882;BME280;7533;51.278;12.588;2023-11-19T22:51:18;99351.72;;;24.83;56.26
14882;BME280;7533;51.278;12.588;2023-11-19T22:56:22;99353.41;;;24.84;56.45
14882;BME280;7533;51.278;12.588;2023-11-19T23:01:25;99344.16;;;24.87;56.14
14882;BME280;7533;51.278;12.588;2023-11-19T23:06:29;99352.66;;;24.92;56.02
14882;BME280;7533;51.278;12.588;2023-11-19T23:11:33;99356.75;;;24.96;56.17
14882;BME280;7533;51.278;12.588;2023-11-19T23:16:36;99353.91;;;24.97;56.13
14882;BME280;7533;51.278;12.588;2023-11-19T23:21:42;99359.34;;;24.97;56.26
14882;BME280;7533;51.278;12.588;2023-11-19T23:26:46;99351.34;;;24.96;56.22
14882;BME280;7533;51.278;12.588;2023-11-19T23:31:49;99355.06;;;24.95;56.18
14882;BME280;7533;51.278;12.588;2023-11-19T23:36:53;99356.06;;;24.94;56.29
14882;BME280;7533;51.278;12.588;2023-11-19T23:41:56;99343.81;;;24.90;56.34
14882;BME280;7533;51.278;12.588;2023-11-19T23:46:59;99345.00;;;24.87;56.63
14882;BME280;7533;51.278;12.588;2023-11-19T23:52:04;99347.31;;;24.82;56.80
14882;BME280;7533;51.278;12.588;2023-11-19T23:57:06;99325.25;;;24.77;57.05
